Time;durP1;ratioP1;P1;durP2;ratioP2;P2;SDS_P1;SDS_P2;PMS_P1;PMS_P2;Temp;Humidity;BMP_temperature;BMP_pressure;BME280_temperature;BME280_humidity;BME280_pressure;Samples;Min_cycle;Max_cycle;Signal;HPM_P1;HPM_P2
2022/11/08 00:02:27;;;;;;;6.50;3.42;;;;;;;10.99;76.31;100554.34;4145434;28;20096;-62
2022/11/08 00:04:31;;;;;;;13.43;6.30;;;;;;;11.01;75.62;100547.44;4146802;28;20049;-62
2022/11/08 00:15:59;;;;;;;16.83;9.93;;;;;;;10.97;76.14;100550.84;4142468;28;20065;-62
2022/11/08 00:18:02;;;;;;;15.25;9.13;;;;;;;10.96;75.31;100547.34;4159279;28;20034;-62
2022/11/08 00:20:07;;;;;;;20.45;10.63;;;;;;;10.96;75.29;100543.91;4157429;28;20088;-62
2022/11/08 00:22:11;;;;;;;18.38;11.13;;;;;;;10.94;75.23;100537.81;4150191;28;20408;-62
2022/11/08 00:24:13;;;;;;;14.55;9.45;;;;;;;10.93;75.18;100539.50;4148518;28;20046;-62
2022/11/08 00:26:17;;;;;;;13.85;7.65;;;;;;;10.89;75.51;100542.06;4147635;28;20033;-62
2022/11/08 00:28:20;;;;;;;15.15;8.30;;;;;;;10.82;75.98;100535.91;4156936;28;20454;-62
2022/11/08 00:30:23;;;;;;;12.15;5.78;;;;;;;10.81;75.37;100532.41;4152256;28;20524;-62
2022/11/08 00:32:26;;;;;;;14.15;6.88;;;;;;;10.83;75.67;100527.25;4141540;28;20088;-62
2022/11/08 00:34:29;;;;;;;12.10;6.97;;;;;;;10.77;76.02;100528.03;4149776;28;20101;-62
2022/11/08 00:36:32;;;;;;;13.98;6.47;;;;;;;10.79;75.94;100523.72;4147348;28;20062;-62
2022/11/08 00:38:35;;;;;;;11.55;4.82;;;;;;;10.75;75.83;100524.53;4155663;28;20053;-61
2022/11/08 00:40:38;;;;;;;10.75;5.72;;;;;;;10.71;75.19;100516.69;4151758;28;20038;-62
2022/11/08 00:42:42;;;;;;;6.90;4.30;;;;;;;10.68;75.34;100529.63;4148759;28;20042;-62
2022/11/08 00:44:44;;;;;;;9.50;4.57;;;;;;;10.69;75.49;100527.06;4148256;28;20133;-62
2022/11/08 00:46:47;;;;;;;9.15;4.38;;;;;;;10.66;75.83;100537.41;4147309;28;20077;-62
2022/11/08 00:48:50;;;;;;;28.23;17.98;;;;;;;10.65;75.65;100533.91;4157943;28;20355;-62
2022/11/08 00:50:53;;;;;;;21.23;13.43;;;;;;;10.67;75.65;100530.47;4149327;28;20066;-62
2022/11/08 00:52:56;;;;;;;16.05;9.95;;;;;;;10.66;76.00;100534.81;4142157;28;20443;-62
2022/11/08 00:54:58;;;;;;;13.73;8.25;;;;;;;10.64;75.48;100534.78;4133530;28;20104;-61
2022/11/08 00:57:01;;;;;;;14.05;6.55;;;;;;;10.65;75.43;100527.84;4143105;28;20038;-62
2022/11/08 00:59:05;;;;;;;12.15;6.50;;;;;;;10.62;75.22;100527.81;4152425;28;20092;-61
2022/11/08 01:01:10;;;;;;;17.30;5.70;;;;;;;10.58;75.97;100520.81;4161299;28;20045;-62
2022/11/08 01:03:18;;;;;;;11.82;4.75;;;;;;;10.53;75.13;100522.44;4158553;28;20099;-61
2022/11/08 01:05:21;;;;;;;13.00;5.43;;;;;;;10.48;75.80;100518.09;4142158;28;20137;-62
2022/11/08 01:07:24;;;;;;;11.30;4.13;;;;;;;10.47;75.82;100518.91;4150486;28;20042;-62
2022/11/08 01:09:27;;;;;;;6.93;3.20;;;;;;;10.46;75.65;100524.97;4153148;28;20248;-62
2022/11/08 01:11:30;;;;;;;9.18;5.20;;;;;;;10.51;75.10;100518.97;4159203;28;20500;-62
2022/11/08 01:13:34;;;;;;;11.15;5.32;;;;;;;10.51;75.31;100519.81;4153001;28;20050;-62
2022/11/08 01:15:40;;;;;;;10.65;5.88;;;;;;;10.51;75.20;100518.97;4149630;28;20037;-62
2022/11/08 01:17:43;;;;;;;10.07;5.38;;;;;;;10.48;75.89;100523.28;4152887;28;20119;-62
2022/11/08 01:19:46;;;;;;;12.93;4.40;;;;;;;10.50;75.42;100514.59;4158989;28;20038;-62
2022/11/08 01:21:48;;;;;;;11.90;4.90;;;;;;;10.48;75.58;100512.88;4149550;28;20096;-61
2022/11/08 01:23:53;;;;;;;11.52;6.25;;;;;;;10.50;74.88;100514.59;4147245;28;20038;-62
2022/11/08 01:25:55;;;;;;;10.02;5.30;;;;;;;10.45;75.56;100509.34;4149404;28;20046;-62
2022/11/08 01:27:58;;;;;;;9.63;4.70;;;;;;;10.45;75.33;100506.75;4149587;28;20053;-62
2022/11/08 01:30:01;;;;;;;12.45;6.07;;;;;;;10.43;75.14;100509.31;4154706;28;20105;-62
2022/11/08 01:32:05;;;;;;;12.15;6.60;;;;;;;10.42;75.59;100501.50;4149164;28;20359;-62
2022/11/08 01:34:08;;;;;;;8.82;5.03;;;;;;;10.39;75.27;100494.53;4148719;28;20046;-62
2022/11/08 01:36:12;;;;;;;11.38;5.97;;;;;;;10.39;75.38;100494.53;4136641;28;20111;-62
2022/11/08 01:38:15;;;;;;;11.63;6.78;;;;;;;10.35;75.77;100490.13;4148482;28;20041;-62
2022/11/08 01:40:18;;;;;;;12.35;5.90;;;;;;;10.31;75.34;100485.72;4157812;28;20070;-62
2022/11/08 01:42:27;;;;;;;17.05;9.02;;;;;;;10.28;75.18;100481.34;4147263;28;20042;-62
2022/11/08 01:44:30;;;;;;;9.63;5.53;;;;;;;10.26;75.92;100480.44;4148522;28;20033;-62
2022/11/08 01:46:41;;;;;;;9.95;5.25;;;;;;;10.24;75.81;100474.34;4146854;28;20049;-62
2022/11/08 01:48:49;;;;;;;10.35;5.07;;;;;;;10.21;75.22;100473.44;4164907;28;20172;-62
2022/11/08 01:50:52;;;;;;;9.57;4.95;;;;;;;10.22;75.67;100472.56;4146341;28;20067;-62
2022/11/08 01:52:55;;;;;;;10.68;4.85;;;;;;;10.25;75.30;100472.63;4148651;28;20093;-62
2022/11/08 01:55:13;;;;;;;8.95;4.53;;;;;;;10.24;75.08;100466.56;4147510;28;20037;-61
2022/11/08 01:57:22;;;;;;;10.75;5.50;;;;;;;10.23;75.27;100462.19;4144918;28;20045;-62
2022/11/08 01:59:25;;;;;;;11.93;5.18;;;;;;;10.17;75.80;100461.25;4158915;28;20038;-62
2022/11/08 02:01:29;;;;;;;7.07;4.10;;;;;;;10.17;75.24;100463.84;4151812;28;20115;-61
2022/11/08 02:03:34;;;;;;;12.00;5.25;;;;;;;10.16;75.41;100459.50;4148486;28;20033;-62
2022/11/08 02:05:39;;;;;;;;;;;;;;;10.04;75.94;100461.03;4149071;28;20084;-62
2022/11/08 02:07:42;;;;;;;7.88;4.10;;;;;;;10.06;75.28;100453.25;4150424;28;19921;-62
2022/11/08 02:09:47;;;;;;;12.93;5.22;;;;;;;10.09;75.12;100454.19;4159216;28;20033;-62
2022/11/08 02:11:51;;;;;;;8.15;3.97;;;;;;;10.12;75.30;100449.06;4138073;28;20037;-62
2022/11/08 02:13:55;;;;;;;10.38;3.80;;;;;;;10.11;75.51;100449.88;4146718;28;20088;-62
2022/11/08 02:15:58;;;;;;;6.30;3.38;;;;;;;10.09;75.37;100453.31;4147470;28;20125;-62
2022/11/08 02:18:01;;;;;;;11.52;3.90;;;;;;;10.06;75.99;100459.34;4148565;28;20400;-62
2022/11/08 02:20:06;;;;;;;8.00;3.35;;;;;;;10.05;75.39;100451.53;4159221;28;20136;-62
2022/11/08 02:22:17;;;;;;;;;;;;;;;9.91;75.11;100451.28;4165475;28;20045;-62
2022/11/08 02:24:21;;;;;;;5.53;3.03;;;;;;;9.94;75.82;100451.34;4134911;28;19921;-62
2022/11/08 02:26:28;;;;;;;9.32;3.45;;;;;;;9.99;75.52;100452.31;4146757;28;20046;-62
2022/11/08 02:28:38;;;;;;;8.43;3.50;;;;;;;10.03;75.54;100443.72;4162290;28;20503;-62
2022/11/08 02:30:41;;;;;;;5.05;2.70;;;;;;;10.01;75.87;100439.34;4151027;28;20483;-62
2022/11/08 02:32:44;;;;;;;5.18;2.90;;;;;;;10.02;75.82;100433.31;4148542;28;20042;-61
2022/11/08 02:34:51;;;;;;;6.13;3.17;;;;;;;9.99;75.50;100439.31;4148055;28;20455;-62
2022/11/08 02:36:54;;;;;;;6.82;3.05;;;;;;;10.00;75.70;100441.03;4146617;28;20502;-62
2022/11/08 02:38:57;;;;;;;6.45;2.90;;;;;;;9.94;75.76;100441.84;4161535;28;20034;-62
2022/11/08 02:41:01;;;;;;;5.72;2.97;;;;;;;9.92;75.55;100450.47;4164739;28;20053;-62
2022/11/08 02:43:04;;;;;;;6.82;3.22;;;;;;;9.89;75.14;100447.81;4153219;28;20034;-62
2022/11/08 02:45:08;;;;;;;7.68;2.72;;;;;;;9.89;75.75;100434.81;4147444;28;20029;-62
2022/11/08 02:47:11;;;;;;;6.07;2.67;;;;;;;9.89;75.05;100437.44;4146055;28;20969;-62
2022/11/08 02:49:14;;;;;;;7.50;2.80;;;;;;;9.87;74.94;100431.31;4141098;28;20413;-62
2022/11/08 02:51:17;;;;;;;5.15;2.75;;;;;;;9.89;75.24;100434.81;4146543;28;20034;-62
2022/11/08 02:53:20;;;;;;;7.32;3.38;;;;;;;9.89;75.08;100433.09;4147246;28;20038;-62
2022/11/08 02:55:23;;;;;;;6.22;3.35;;;;;;;9.89;75.08;100435.69;4144524;28;20038;-62
2022/11/08 02:57:27;;;;;;;7.38;3.35;;;;;;;9.91;74.68;100422.72;4142581;28;20038;-62
2022/11/08 02:59:30;;;;;;;5.13;2.45;;;;;;;9.86;75.39;100429.59;4147206;28;20049;-62
2022/11/08 03:01:32;;;;;;;6.50;2.67;;;;;;;9.84;75.03;100433.88;4145863;28;20104;-62
2022/11/08 03:03:35;;;;;;;6.40;2.50;;;;;;;9.83;75.16;100433.00;4146422;28;20088;-62
2022/11/08 03:05:38;;;;;;;6.07;2.75;;;;;;;9.79;75.03;100416.47;4146940;28;20045;-62
2022/11/08 03:07:41;;;;;;;6.95;2.83;;;;;;;9.79;75.02;100419.06;4139894;28;20030;-62
2022/11/08 03:09:44;;;;;;;6.13;2.78;;;;;;;9.77;75.06;100425.97;4154736;28;20038;-62
2022/11/08 03:11:46;;;;;;;6.75;3.40;;;;;;;9.78;75.05;100421.66;4146090;28;20046;-62
2022/11/08 03:13:51;;;;;;;5.18;2.90;;;;;;;9.73;75.12;100421.56;4146807;28;20053;-61
2022/11/08 03:15:53;;;;;;;8.63;3.17;;;;;;;9.69;75.00;100419.78;4145729;28;20037;-61
2022/11/08 03:17:57;;;;;;;6.78;2.72;;;;;;;9.65;75.87;100418.00;4147491;28;20057;-61
2022/11/08 03:20:00;;;;;;;8.13;2.92;;;;;;;9.68;75.25;100423.22;4148099;28;20100;-62
2022/11/08 03:22:03;;;;;;;7.00;3.00;;;;;;;9.62;75.48;100420.50;4145883;28;20412;-62
2022/11/08 03:24:06;;;;;;;9.27;2.70;;;;;;;9.58;75.61;100414.41;4157213;28;20096;-62
2022/11/08 03:26:09;;;;;;;9.07;2.95;;;;;;;9.59;75.85;100415.28;4145524;28;20042;-62
2022/11/08 03:28:12;;;;;;;5.88;2.70;;;;;;;9.56;75.40;100410.03;4140854;28;20042;-62
2022/11/08 03:30:16;;;;;;;6.45;2.50;;;;;;;9.50;75.43;100404.75;4148604;28;20096;-62
2022/11/08 03:32:19;;;;;;;9.00;2.80;;;;;;;9.47;75.89;100404.69;4147467;28;20029;-61
2022/11/08 03:34:22;;;;;;;6.68;3.67;;;;;;;9.44;75.91;100395.97;4145062;28;20037;-62
2022/11/08 03:36:25;;;;;;;7.25;2.38;;;;;;;9.46;75.95;100395.16;4144748;28;20042;-62
2022/11/08 03:38:28;;;;;;;5.32;2.60;;;;;;;9.48;75.19;100394.34;4148824;28;20037;-62
2022/11/08 03:40:31;;;;;;;5.28;2.50;;;;;;;9.44;75.40;100400.31;4146004;28;20038;-62
2022/11/08 03:42:34;;;;;;;6.10;2.83;;;;;;;9.38;75.65;100400.22;4145512;28;20038;-61
2022/11/08 03:44:37;;;;;;;8.13;3.20;;;;;;;9.39;75.88;100399.38;4145628;28;20034;-62
2022/11/08 03:46:41;;;;;;;6.57;2.47;;;;;;;9.34;75.80;100404.44;4147717;28;20038;-62
2022/11/08 03:48:44;;;;;;;5.53;2.60;;;;;;;9.34;75.52;100398.41;4168105;28;20458;-62
2022/11/08 03:50:46;;;;;;;7.22;3.25;;;;;;;9.32;76.11;100390.59;4157777;28;20443;-62
2022/11/08 03:52:51;;;;;;;7.35;2.78;;;;;;;9.35;76.17;100385.44;4144003;28;20161;-62
2022/11/08 03:54:54;;;;;;;7.50;3.28;;;;;;;9.38;75.53;100384.63;4151943;28;20034;-62
2022/11/08 03:56:56;;;;;;;6.45;3.08;;;;;;;9.37;75.68;100382.88;4157249;28;20400;-62
2022/11/08 03:58:59;;;;;;;4.43;2.45;;;;;;;9.38;75.14;100377.72;4154936;28;20515;-62
2022/11/08 04:01:04;;;;;;;8.00;2.67;;;;;;;9.36;75.18;100373.34;4150404;28;20052;-62
2022/11/08 04:03:09;;;;;;;6.63;3.22;;;;;;;9.34;74.92;100373.31;4152788;28;20496;-61
2022/11/08 04:05:13;;;;;;;6.20;2.75;;;;;;;9.40;75.08;100372.56;4151781;28;20042;-62
2022/11/08 04:07:15;;;;;;;9.68;3.00;;;;;;;9.36;75.01;100362.97;4156517;28;20033;-62
2022/11/08 04:09:18;;;;;;;9.40;3.05;;;;;;;9.30;75.22;100371.53;4158217;28;20046;-62
2022/11/08 04:16:05;;;;;;;4.47;2.28;;;;;;;9.23;75.66;100374.88;4145908;28;20041;-62
2022/11/08 04:23:03;;;;;;;6.88;2.50;;;;;;;9.21;75.91;100366.16;4132570;28;20050;-62
2022/11/08 04:25:07;;;;;;;4.72;2.45;;;;;;;9.22;76.25;100378.31;4146524;28;20105;-61
2022/11/08 04:27:10;;;;;;;9.50;3.03;;;;;;;9.36;75.75;100362.97;4162197;28;20384;-62
2022/11/08 04:29:13;;;;;;;5.28;2.30;;;;;;;9.37;75.82;100352.59;4148541;28;20053;-61
2022/11/08 04:31:18;;;;;;;7.07;2.35;;;;;;;9.34;75.70;100365.53;4144130;28;20041;-62
2022/11/08 04:33:22;;;;;;;7.00;2.88;;;;;;;9.31;75.86;100368.06;4150784;28;20096;-62
2022/11/08 04:35:25;;;;;;;6.72;2.47;;;;;;;9.26;76.11;100369.72;4146748;28;20113;-62
2022/11/08 04:37:28;;;;;;;7.60;2.63;;;;;;;9.31;75.83;100373.25;4162673;28;20029;-62
2022/11/08 04:39:30;;;;;;;6.10;2.50;;;;;;;9.37;75.73;100377.69;4157415;28;20111;-62
2022/11/08 04:41:33;;;;;;;9.85;3.13;;;;;;;9.48;75.34;100365.78;4151060;28;20042;-62
2022/11/08 04:43:36;;;;;;;7.60;3.65;;;;;;;9.49;75.04;100362.34;4151954;28;20048;-62
2022/11/08 04:45:39;;;;;;;6.15;2.08;;;;;;;9.49;75.50;100356.28;4147664;28;20064;-62
2022/11/08 04:47:45;;;;;;;8.02;2.88;;;;;;;9.51;74.73;100360.66;4155237;28;20046;-62
2022/11/08 04:49:51;;;;;;;5.88;2.42;;;;;;;9.49;75.31;100361.47;4150145;28;20045;-62
2022/11/08 04:51:54;;;;;;;4.07;2.28;;;;;;;9.55;74.52;100364.16;4141070;28;20042;-62
2022/11/08 04:53:59;;;;;;;5.28;2.67;;;;;;;9.52;75.26;100366.69;4144907;28;20047;-62
2022/11/08 04:56:04;;;;;;;5.47;2.58;;;;;;;9.53;75.36;100360.66;4147483;28;20049;-62
2022/11/08 04:58:07;;;;;;;5.20;2.70;;;;;;;9.48;75.51;100364.94;4149421;28;20037;-61
2022/11/08 05:00:11;;;;;;;6.78;2.70;;;;;;;9.60;75.02;100360.78;4151214;28;20487;-61
2022/11/08 05:02:14;;;;;;;7.18;3.08;;;;;;;9.59;74.86;100350.38;4148880;28;20491;-62
2022/11/08 05:04:17;;;;;;;3.83;2.80;;;;;;;9.43;74.92;100355.34;4149171;28;20120;-62
2022/11/08 05:06:23;;;;;;;6.20;2.40;;;;;;;9.48;74.63;100354.53;4143920;28;20062;-62
2022/11/08 05:08:26;;;;;;;4.80;2.60;;;;;;;9.46;74.72;100356.22;4144723;28;20465;-62
2022/11/08 05:10:28;;;;;;;8.23;2.60;;;;;;;9.51;74.39;100349.41;4149686;28;20092;-62
2022/11/08 05:12:31;;;;;;;6.72;2.72;;;;;;;9.58;74.18;100348.66;4149587;28;20046;-62
2022/11/08 05:14:34;;;;;;;5.07;3.03;;;;;;;9.61;74.09;100330.53;4142120;28;20041;-62
2022/11/08 05:16:37;;;;;;;5.93;3.00;;;;;;;9.49;74.65;100338.09;4140461;28;20521;-62
2022/11/08 05:18:40;;;;;;;4.68;2.53;;;;;;;9.43;74.49;100344.97;4143695;28;20085;-62
2022/11/08 05:23:23;;;;;;;4.82;2.97;;;;;;;9.31;74.95;100326.56;4162793;28;20033;-61
2022/11/08 05:25:26;;;;;;;11.00;2.60;;;;;;;9.41;74.73;100310.31;4145806;28;20103;-61
2022/11/08 05:27:28;;;;;;;8.98;3.55;;;;;;;9.30;75.42;100319.66;4152614;28;20029;-61
2022/11/08 05:29:31;;;;;;;6.65;3.03;;;;;;;9.16;75.44;100336.69;4144890;28;20563;-62
2022/11/08 05:31:34;;;;;;;6.03;2.90;;;;;;;9.13;75.33;100344.41;4144785;28;20408;-62
2022/11/08 05:33:37;;;;;;;3.38;2.38;;;;;;;9.25;75.49;100329.06;4132927;28;20070;-62
2022/11/08 05:35:40;;;;;;;5.55;2.67;;;;;;;9.31;75.29;100321.38;4134910;28;20049;-62
2022/11/08 05:37:43;;;;;;;6.28;2.65;;;;;;;9.26;74.95;100325.63;4149546;28;20092;-63
2022/11/08 05:39:47;;;;;;;5.63;2.53;;;;;;;9.12;75.69;100322.78;4143520;28;20034;-63
2022/11/08 05:41:50;;;;;;;7.15;3.30;;;;;;;9.21;75.53;100306.50;4148890;28;20044;-63
2022/11/08 05:43:54;;;;;;;6.43;2.75;;;;;;;9.09;75.78;100314.94;4149113;28;20587;-62
2022/11/08 05:45:57;;;;;;;6.47;2.58;;;;;;;9.05;75.84;100314.03;4149553;28;20511;-62
2022/11/08 05:48:02;;;;;;;5.40;2.63;;;;;;;9.16;75.76;100318.53;4158359;28;20487;-62
2022/11/08 05:50:06;;;;;;;4.85;2.65;;;;;;;9.18;75.79;100314.25;4144815;28;20064;-62
2022/11/08 05:52:09;;;;;;;7.05;2.97;;;;;;;9.31;75.42;100321.38;4144999;28;20140;-62
2022/11/08 05:54:12;;;;;;;5.45;2.53;;;;;;;9.28;74.90;100323.06;4147152;28;20104;-61
2022/11/08 05:56:17;;;;;;;5.72;2.30;;;;;;;9.21;75.15;100325.56;4151913;28;20487;-62
2022/11/08 05:58:20;;;;;;;6.90;2.50;;;;;;;9.32;74.84;100319.69;4157636;28;20037;-62
2022/11/08 06:00:23;;;;;;;5.10;2.38;;;;;;;9.28;74.98;100313.56;4165490;28;20454;-62
2022/11/08 06:02:26;;;;;;;5.63;2.80;;;;;;;9.28;74.80;100318.75;4156793;28;20041;-62
2022/11/08 06:04:29;;;;;;;5.45;2.58;;;;;;;9.33;74.69;100311.03;4135986;28;20117;-62
2022/11/08 06:06:31;;;;;;;4.03;2.60;;;;;;;9.35;74.42;100297.25;4145634;28;20044;-63
2022/11/08 06:08:35;;;;;;;4.93;2.40;;;;;;;9.53;73.67;100295.78;4162506;28;20034;-62
2022/11/08 06:10:38;;;;;;;5.53;2.80;;;;;;;9.48;73.59;100294.88;4138413;28;20056;-63
2022/11/08 06:12:42;;;;;;;5.70;2.50;;;;;;;9.36;73.91;100296.41;4147838;28;20471;-62
2022/11/08 06:14:44;;;;;;;6.72;3.00;;;;;;;9.31;74.27;100300.63;4147479;28;20492;-62
2022/11/08 06:16:47;;;;;;;3.67;2.38;;;;;;;9.29;74.41;100301.44;4142304;28;20129;-62
2022/11/08 06:18:50;;;;;;;3.55;2.13;;;;;;;9.28;74.77;100310.97;4155796;28;20034;-62
2022/11/08 06:20:53;;;;;;;4.63;2.25;;;;;;;9.19;74.47;100313.41;4157435;28;20045;-62
2022/11/08 06:22:56;;;;;;;5.72;2.75;;;;;;;9.25;74.79;100310.91;4161975;28;20029;-62
2022/11/08 06:24:59;;;;;;;4.72;2.13;;;;;;;9.29;74.39;100317.91;4147673;28;20038;-62
2022/11/08 06:27:02;;;;;;;4.10;2.30;;;;;;;9.06;74.94;100326.13;4148402;28;20045;-62
2022/11/08 06:29:07;;;;;;;6.47;2.67;;;;;;;9.06;74.97;100320.94;4143594;28;20041;-62
2022/11/08 06:31:10;;;;;;;6.32;2.42;;;;;;;9.07;74.85;100333.06;4150666;28;20451;-62
2022/11/08 06:33:12;;;;;;;4.43;2.15;;;;;;;9.07;75.32;100333.06;4150011;28;20056;-62
2022/11/08 06:35:15;;;;;;;8.40;3.17;;;;;;;9.18;75.03;100324.63;4163063;28;20490;-62
2022/11/08 06:37:18;;;;;;;2.60;1.90;;;;;;;9.18;74.75;100330.66;4153841;28;20569;-62
2022/11/08 06:39:21;;;;;;;6.20;2.75;;;;;;;9.22;74.64;100336.78;4152875;28;20546;-62
2022/11/08 06:41:28;;;;;;;7.07;3.05;;;;;;;9.24;74.66;100330.78;4143068;28;20042;-62
2022/11/08 06:43:31;;;;;;;4.28;2.80;;;;;;;9.29;74.24;100333.47;4152521;28;20045;-62
2022/11/08 06:45:37;;;;;;;5.22;2.70;;;;;;;9.29;74.30;100328.28;4164472;28;20033;-62
2022/11/08 06:47:40;;;;;;;6.60;2.70;;;;;;;9.26;74.55;100338.59;4164735;28;20495;-62
2022/11/08 06:49:43;;;;;;;5.80;2.90;;;;;;;9.26;74.91;100330.81;4163880;28;20041;-62
2022/11/08 06:51:46;;;;;;;6.63;2.85;;;;;;;9.28;74.88;100336.91;4164561;28;20453;-62
2022/11/08 06:53:48;;;;;;;7.75;2.75;;;;;;;9.25;74.97;100332.53;4164391;28;20076;-62
2022/11/08 06:55:51;;;;;;;6.00;2.42;;;;;;;9.25;74.98;100336.84;4164588;28;20495;-62
2022/11/08 06:57:54;;;;;;;6.25;2.63;;;;;;;9.25;74.90;100331.66;4147007;28;20053;-62
2022/11/08 06:59:57;;;;;;;5.05;2.30;;;;;;;9.25;75.04;100335.13;4163398;28;20042;-62
2022/11/08 07:02:01;;;;;;;6.43;2.65;;;;;;;9.28;75.15;100326.53;4164541;28;20080;-62
2022/11/08 07:04:05;;;;;;;4.70;2.20;;;;;;;9.30;75.60;100323.94;4164105;28;20045;-62
2022/11/08 07:06:08;;;;;;;5.53;2.20;;;;;;;9.30;75.16;100326.53;4162201;28;20399;-62
2022/11/08 07:08:11;;;;;;;6.18;2.75;;;;;;;9.36;75.46;100324.94;4163237;28;20041;-62
2022/11/08 07:10:14;;;;;;;7.13;2.78;;;;;;;9.39;75.09;100331.91;4164388;28;20042;-62
2022/11/08 07:12:17;;;;;;;8.15;2.47;;;;;;;9.47;75.42;100342.41;4149032;28;20069;-62
2022/11/08 07:14:20;;;;;;;4.72;2.53;;;;;;;9.43;74.86;100337.19;4146232;28;20550;-62
2022/11/08 07:16:22;;;;;;;4.75;2.50;;;;;;;9.40;74.83;100336.22;4144414;28;20443;-62
2022/11/08 07:18:27;;;;;;;4.95;2.80;;;;;;;9.53;74.80;100327.78;4147899;28;20038;-62
2022/11/08 07:20:30;;;;;;;6.13;3.08;;;;;;;9.53;74.97;100326.94;4147611;28;20052;-62
2022/11/08 07:22:33;;;;;;;5.75;2.67;;;;;;;9.66;74.55;100322.81;4146502;28;20042;-62
2022/11/08 07:24:36;;;;;;;5.13;2.55;;;;;;;9.63;74.66;100325.38;4158503;28;20037;-62
2022/11/08 07:26:38;;;;;;;6.75;2.60;;;;;;;9.63;74.88;100323.63;4164286;28;20034;-62
2022/11/08 07:28:41;;;;;;;4.38;2.35;;;;;;;9.64;75.41;100325.41;4150357;28;20052;-61
2022/11/08 07:30:45;;;;;;;5.82;3.08;;;;;;;9.64;75.09;100325.41;4147788;28;20438;-62
2022/11/08 07:32:48;;;;;;;3.83;2.40;;;;;;;9.66;75.62;100318.50;4147978;28;20050;-62
2022/11/08 07:34:52;;;;;;;8.23;2.97;;;;;;;9.66;75.38;100322.81;4147386;28;20038;-62
2022/11/08 07:36:55;;;;;;;6.05;2.40;;;;;;;9.67;75.71;100319.38;4147278;28;20073;-62
2022/11/08 07:38:57;;;;;;;5.53;2.30;;;;;;;9.69;75.72;100321.13;4146310;28;20076;-62
2022/11/08 07:41:08;;;;;;;5.13;2.42;;;;;;;9.70;75.16;100333.25;4138516;28;20125;-62
2022/11/08 07:43:11;;;;;;;4.32;2.38;;;;;;;9.66;75.32;100326.28;4163931;28;20099;-62
2022/11/08 07:45:15;;;;;;;5.90;2.95;;;;;;;9.78;75.48;100323.88;4164178;28;20040;-62
2022/11/08 07:47:17;;;;;;;8.00;2.55;;;;;;;9.85;75.10;100323.97;4164015;28;20037;-62
2022/11/08 07:49:20;;;;;;;8.90;3.00;;;;;;;9.91;75.20;100331.84;4156085;28;20100;-62
2022/11/08 07:51:25;;;;;;;3.83;2.35;;;;;;;9.95;74.54;100333.63;4144555;28;20121;-62
2022/11/08 07:53:27;;;;;;;4.82;2.10;;;;;;;9.96;75.24;100332.81;4147324;28;20129;-62
2022/11/08 07:55:35;;;;;;;4.85;2.78;;;;;;;10.04;74.11;100318.19;4147636;28;20046;-62
2022/11/08 07:57:38;;;;;;;5.53;2.72;;;;;;;10.07;74.16;100315.63;4152141;28;20041;-62
2022/11/08 07:59:41;;;;;;;5.30;2.58;;;;;;;10.11;73.82;100321.75;4164146;28;20447;-62
2022/11/08 08:01:44;;;;;;;3.83;2.13;;;;;;;10.19;74.07;100319.25;4163944;28;20577;-62
2022/11/08 08:03:46;;;;;;;4.30;2.22;;;;;;;10.24;73.99;100322.78;4162260;28;20499;-62
2022/11/08 08:05:52;;;;;;;7.50;2.40;;;;;;;10.24;73.79;100313.25;4163866;28;20034;-62
2022/11/08 08:08:04;;;;;;;7.20;2.83;;;;;;;10.25;74.05;100325.41;4156341;28;20395;-62
2022/11/08 08:10:08;;;;;;;4.38;2.40;;;;;;;10.20;73.19;100327.06;4147455;28;20495;-62
2022/11/08 08:12:11;;;;;;;5.18;2.28;;;;;;;10.17;73.07;100341.75;4146222;28;20085;-62
2022/11/08 08:14:13;;;;;;;6.55;2.17;;;;;;;10.18;72.89;100353.84;4148473;28;20061;-62
2022/11/08 08:16:16;;;;;;;3.30;2.17;;;;;;;10.21;72.69;100357.38;4162429;28;20037;-63
2022/11/08 08:18:20;;;;;;;4.75;1.85;;;;;;;10.29;73.30;100357.50;4163822;28;20037;-62
2022/11/08 08:20:23;;;;;;;5.90;2.50;;;;;;;10.36;72.68;100361.94;4163774;28;20488;-62
2022/11/08 08:22:26;;;;;;;4.68;2.08;;;;;;;10.47;72.30;100357.78;4162636;28;20303;-62
2022/11/08 08:24:30;;;;;;;3.88;1.92;;;;;;;10.55;72.74;100354.41;4163401;28;20045;-62
2022/11/08 08:26:33;;;;;;;4.00;2.22;;;;;;;10.59;72.88;100359.66;4162577;28;20403;-62
2022/11/08 08:28:36;;;;;;;7.80;2.50;;;;;;;10.64;72.65;100344.09;4163755;28;20099;-62
2022/11/08 08:30:39;;;;;;;4.95;2.20;;;;;;;10.68;73.38;100345.03;4162534;28;20049;-62
2022/11/08 08:32:42;;;;;;;4.20;2.15;;;;;;;10.72;73.06;100339.00;4164148;28;20071;-62
2022/11/08 08:34:45;;;;;;;10.40;2.70;;;;;;;10.72;73.86;100346.78;4164943;28;20087;-62
2022/11/08 08:36:48;;;;;;;4.80;2.30;;;;;;;10.74;73.76;100343.38;4148275;28;20088;-62
2022/11/08 08:38:51;;;;;;;6.10;2.88;;;;;;;10.87;73.15;100340.91;4141530;28;20443;-62
2022/11/08 08:40:55;;;;;;;4.75;2.40;;;;;;;10.84;72.69;100346.94;4148454;28;20049;-62
2022/11/08 08:42:59;;;;;;;3.85;2.17;;;;;;;10.92;73.70;100347.03;4149443;28;20044;-62
2022/11/08 08:45:02;;;;;;;;;;;;;;;10.88;72.26;100350.44;4147774;28;20044;-62
2022/11/08 08:47:05;;;;;;;4.75;2.38;;;;;;;10.88;72.43;100353.94;4149863;28;19926;-62
2022/11/08 08:49:08;;;;;;;5.57;2.50;;;;;;;10.87;72.53;100356.53;4158694;28;20052;-62
2022/11/08 08:51:10;;;;;;;5.88;2.38;;;;;;;10.86;71.57;100359.97;4162771;28;20041;-62
2022/11/08 08:53:13;;;;;;;4.97;1.75;;;;;;;10.95;71.47;100360.94;4148398;28;20050;-62
2022/11/08 08:55:17;;;;;;;4.95;2.20;;;;;;;11.08;71.38;100363.66;4150123;28;20053;-62
2022/11/08 08:57:21;;;;;;;4.40;2.03;;;;;;;11.07;69.66;100360.22;4150026;28;20042;-62
2022/11/08 08:59:24;;;;;;;4.20;1.80;;;;;;;11.14;70.31;100363.72;4150106;28;20041;-62
2022/11/08 09:01:47;;;;;;;6.05;2.33;;;;;;;11.14;70.67;100367.22;4149968;28;20125;-62
2022/11/08 09:03:50;;;;;;;3.38;1.85;;;;;;;11.21;70.48;100362.06;4142160;28;20522;-62
2022/11/08 09:05:53;;;;;;;4.72;2.00;;;;;;;11.25;70.29;100358.66;4140237;28;20463;-62
2022/11/08 09:07:56;;;;;;;7.07;2.00;;;;;;;11.29;69.58;100361.28;4149869;28;20042;-62
2022/11/08 09:09:59;;;;;;;4.95;2.33;;;;;;;11.34;69.60;100358.72;4132382;28;20081;-62
2022/11/08 09:12:03;;;;;;;6.13;2.70;;;;;;;11.37;69.75;100363.97;4148563;28;20057;-62
2022/11/08 09:14:07;;;;;;;4.57;2.28;;;;;;;11.42;69.13;100362.28;4149426;28;20304;-62
2022/11/08 09:16:12;;;;;;;6.40;2.50;;;;;;;11.32;69.18;100370.88;4149881;28;20049;-62
2022/11/08 09:18:16;;;;;;;5.63;2.03;;;;;;;11.32;69.10;100371.72;4149764;28;20054;-62
2022/11/08 09:20:19;;;;;;;5.68;2.10;;;;;;;11.34;69.07;100371.75;4149683;28;20042;-62
2022/11/08 09:22:22;;;;;;;7.75;2.45;;;;;;;11.37;69.02;100369.16;4150980;28;20068;-62
2022/11/08 09:24:25;;;;;;;8.05;2.75;;;;;;;11.49;69.00;100364.09;4151492;28;20053;-62
2022/11/08 09:26:28;;;;;;;3.92;1.90;;;;;;;11.56;68.96;100362.38;4149217;28;20529;-62
2022/11/08 09:28:32;;;;;;;5.75;1.90;;;;;;;11.61;69.11;100360.72;4149752;28;20038;-62
2022/11/08 09:30:36;;;;;;;5.57;2.08;;;;;;;11.69;69.26;100359.03;4149566;28;20231;-62
2022/11/08 09:32:39;;;;;;;4.93;2.08;;;;;;;11.77;68.74;100355.59;4149585;28;20042;-62
2022/11/08 09:35:05;;;;;;;2.80;1.90;;;;;;;11.79;68.02;100352.16;4147996;28;20041;-62
2022/11/08 09:37:08;;;;;;;7.80;2.20;;;;;;;11.92;67.96;100358.34;4149350;28;20038;-62
2022/11/08 09:39:11;;;;;;;6.30;1.95;;;;;;;12.11;67.09;100361.13;4150424;28;20045;-62
2022/11/08 09:41:42;;;;;;;6.90;2.35;;;;;;;12.20;67.42;100359.41;4150805;28;20571;-62
2022/11/08 09:44:07;;;;;;;5.35;2.33;;;;;;;12.33;66.65;100359.50;4124986;28;20082;-62
2022/11/08 09:46:15;;;;;;;;;;;;;;;12.19;65.97;100349.88;4142044;28;20042;-62
2022/11/08 09:48:26;;;;;;;3.97;1.92;;;;;;;12.40;65.89;100340.41;4149091;28;20391;-62
2022/11/08 09:50:37;;;;;;;3.08;2.05;;;;;;;12.32;66.33;100352.53;4147864;28;20076;-62
2022/11/08 09:52:43;;;;;;;4.65;2.30;;;;;;;12.42;66.24;100346.50;4148349;28;20042;-62
2022/11/08 09:54:47;;;;;;;6.05;2.30;;;;;;;12.36;66.87;100354.28;4147976;28;20176;-62
2022/11/08 09:56:53;;;;;;;5.15;2.40;;;;;;;12.42;66.59;100353.47;4140112;28;20447;-62
2022/11/08 09:59:00;;;;;;;5.38;2.28;;;;;;;12.57;65.08;100350.91;4131599;28;20078;-62
2022/11/08 10:01:04;;;;;;;5.80;2.42;;;;;;;12.62;64.86;100345.72;4145976;28;20033;-62
2022/11/08 10:03:13;;;;;;;4.85;1.95;;;;;;;12.62;64.94;100348.34;4149995;28;20068;-62